createdAt,value
2023-03-22T00:04:36.997Z,29
2023-03-22T00:09:53.420Z,32
2023-03-22T00:15:09.863Z,30
2023-03-22T00:20:26.230Z,30
2023-03-22T00:25:43.308Z,34
2023-03-22T00:30:59.813Z,33
2023-03-22T00:36:16.110Z,34
2023-03-22T00:41:32.545Z,35
2023-03-22T00:46:48.897Z,35
2023-03-22T00:52:05.328Z,36
2023-03-22T00:57:23.219Z,31
2023-03-22T01:02:39.429Z,37
2023-03-22T01:07:55.801Z,32
2023-03-22T01:13:12.264Z,32
2023-03-22T01:18:28.613Z,30
2023-03-22T01:23:44.831Z,38
2023-03-22T01:29:01.216Z,36
2023-03-22T01:34:17.657Z,37
2023-03-22T01:39:34.066Z,37
2023-03-22T01:44:50.455Z,34
2023-03-22T01:50:06.861Z,34
2023-03-22T01:55:23.316Z,32
2023-03-22T02:00:39.970Z,28
2023-03-22T02:05:56.078Z,27
2023-03-22T02:11:12.533Z,34
2023-03-22T02:16:28.915Z,33
2023-03-22T02:21:45.303Z,28
2023-03-22T02:27:01.708Z,25
2023-03-22T02:32:18.099Z,24
2023-03-22T02:37:34.458Z,23
2023-03-22T02:42:50.621Z,24
2023-03-22T02:48:07.054Z,27
2023-03-22T02:53:23.439Z,29
2023-03-22T02:58:39.831Z,28
2023-03-22T03:03:56.214Z,26
2023-03-22T03:09:12.633Z,29
2023-03-22T03:14:29.034Z,24
2023-03-22T03:19:45.383Z,24
2023-03-22T03:25:01.816Z,27
2023-03-22T03:30:17.894Z,28
2023-03-22T03:35:34.299Z,28
2023-03-22T03:40:50.702Z,22
2023-03-22T03:46:07.149Z,24
2023-03-22T03:51:23.494Z,22
2023-03-22T03:56:40.368Z,26
2023-03-22T04:01:56.978Z,24
2023-03-22T04:07:13.325Z,24
2023-03-22T04:12:30.272Z,28
2023-03-22T04:17:46.689Z,25
2023-03-22T04:23:03.076Z,22
2023-03-22T04:28:19.438Z,26
2023-03-22T04:33:35.857Z,24
2023-03-22T04:38:51.976Z,27
2023-03-22T04:44:08.586Z,28
2023-03-22T04:49:24.990Z,28
2023-03-22T04:54:41.360Z,27
2023-03-22T04:59:57.762Z,35
2023-03-22T05:05:14.225Z,35
2023-03-22T05:10:31.374Z,32
2023-03-22T05:15:47.863Z,34
2023-03-22T05:21:04.780Z,33
2023-03-22T05:26:21.740Z,40
2023-03-22T05:31:38.049Z,51
2023-03-22T05:36:54.382Z,42
2023-03-22T05:42:11.420Z,43
2023-03-22T05:47:27.852Z,41
2023-03-22T05:52:44.253Z,34
2023-03-22T05:58:00.901Z,36
2023-03-22T06:03:17.745Z,42
2023-03-22T06:08:34.048Z,36
2023-03-22T06:13:50.481Z,34
2023-03-22T06:19:06.889Z,36
2023-03-22T06:24:24.242Z,42
2023-03-22T06:29:40.709Z,40
2023-03-22T06:34:57.142Z,39
2023-03-22T06:40:13.536Z,44
2023-03-22T06:45:29.954Z,34
2023-03-22T06:50:47.090Z,39
2023-03-22T06:56:03.375Z,37
2023-03-22T07:01:20.043Z,45
2023-03-22T07:06:36.397Z,40
2023-03-22T07:11:52.854Z,38
2023-03-22T07:17:09.272Z,36
2023-03-22T07:22:25.642Z,36
2023-03-22T07:27:42.107Z,35
2023-03-22T07:32:58.517Z,33
2023-03-22T07:38:14.885Z,31
2023-03-22T07:43:34.046Z,35
2023-03-22T07:48:48.124Z,31
2023-03-22T07:54:06.455Z,28
2023-03-22T07:59:20.891Z,28
2023-03-22T08:04:37.259Z,29
2023-03-22T08:09:53.634Z,25
2023-03-22T08:15:10.043Z,23
2023-03-22T08:20:26.853Z,28
2023-03-22T08:25:43.134Z,30
2023-03-22T08:30:59.502Z,29
2023-03-22T08:36:15.877Z,31
2023-03-22T08:41:32.317Z,29
2023-03-22T08:46:48.672Z,29
2023-03-22T08:52:05.054Z,29
2023-03-22T08:57:21.526Z,31
2023-03-22T09:02:37.659Z,32
2023-03-22T09:07:54.085Z,34
2023-03-22T09:13:10.678Z,35
2023-03-22T09:18:26.960Z,38
2023-03-22T09:23:43.444Z,35
2023-03-22T09:28:59.776Z,34
2023-03-22T09:34:16.170Z,34
2023-03-22T09:39:32.568Z,34
2023-03-22T09:44:48.934Z,35
2023-03-22T09:50:05.072Z,37
2023-03-22T09:55:21.720Z,37
2023-03-22T10:00:38.317Z,35
2023-03-22T10:05:54.514Z,35
2023-03-22T10:11:11.471Z,37
2023-03-22T10:16:28.182Z,32
2023-03-22T10:21:44.536Z,34
2023-03-22T10:27:00.836Z,35
2023-03-22T10:32:17.171Z,32
2023-03-22T10:37:34.076Z,31
2023-03-22T10:42:50.373Z,29
2023-03-22T10:48:06.721Z,31
2023-03-22T10:53:23.386Z,36
2023-03-22T10:58:39.664Z,34
2023-03-22T11:03:56.344Z,32
2023-03-22T11:09:13.211Z,31
2023-03-22T11:14:29.504Z,35
2023-03-22T11:19:45.890Z,34
2023-03-22T11:25:01.929Z,34
2023-03-22T11:30:18.266Z,37
2023-03-22T11:35:35.186Z,24
2023-03-22T11:40:51.429Z,27
2023-03-22T11:46:08.315Z,66
2023-03-22T11:51:24.565Z,19
2023-03-22T11:56:40.801Z,16
2023-03-22T12:01:57.102Z,13
2023-03-22T12:07:13.108Z,33
2023-03-22T12:12:29.418Z,32
2023-03-22T12:17:45.814Z,21
2023-03-22T12:23:02.571Z,28
2023-03-22T12:28:18.848Z,25
2023-03-22T12:33:35.172Z,28
2023-03-22T12:38:51.421Z,25
2023-03-22T12:44:07.751Z,17
2023-03-22T12:49:24.577Z,26
2023-03-22T12:54:40.837Z,28
2023-03-22T12:59:57.172Z,23
2023-03-22T13:05:14.702Z,24
2023-03-22T13:10:30.986Z,20
2023-03-22T13:15:47.287Z,16
2023-03-22T13:21:03.552Z,22
2023-03-22T13:26:19.863Z,22
2023-03-22T13:31:36.226Z,25
2023-03-22T13:36:52.420Z,22
2023-03-22T13:42:08.761Z,22
2023-03-22T13:47:25.027Z,21
2023-03-22T13:52:41.317Z,21
2023-03-22T13:57:57.642Z,26
2023-03-22T14:03:14.699Z,26
2023-03-22T14:08:30.884Z,31
2023-03-22T14:13:47.025Z,34
2023-03-22T14:19:03.330Z,29
2023-03-22T14:55:58.032Z,18
2023-03-22T15:01:14.437Z,23
2023-03-22T15:06:30.726Z,16
2023-03-22T15:11:47.125Z,17
2023-03-22T15:17:04.943Z,21
2023-03-22T15:22:21.309Z,19
2023-03-22T15:27:37.705Z,17
2023-03-22T15:32:54.038Z,15
2023-03-22T15:38:10.407Z,19
2023-03-22T15:43:26.825Z,21
2023-03-22T15:48:43.173Z,23
2023-03-22T15:53:59.570Z,22
2023-03-22T15:59:15.956Z,23
2023-03-22T16:04:32.336Z,23
2023-03-22T16:09:48.733Z,25
2023-03-22T16:15:05.208Z,28
2023-03-22T16:20:21.304Z,28
2023-03-22T16:25:39.128Z,29
2023-03-22T16:30:54.292Z,28
2023-03-22T16:36:12.161Z,27
2023-03-22T16:41:27.334Z,29
2023-03-22T16:46:43.711Z,30
2023-03-22T16:52:00.716Z,33
2023-03-22T16:57:17.679Z,32
2023-03-22T17:02:34.119Z,29
2023-03-22T17:07:50.490Z,29
2023-03-22T17:13:06.891Z,33
2023-03-22T17:18:23.256Z,33
2023-03-22T17:23:40.172Z,34
2023-03-22T17:28:56.506Z,33
2023-03-22T17:34:12.675Z,37
2023-03-22T17:40:11.606Z,36
2023-03-22T17:44:45.697Z,35
2023-03-22T17:50:02.088Z,33
2023-03-22T17:55:24.544Z,34
2023-03-22T18:00:34.516Z,36
2023-03-22T18:05:50.676Z,34
2023-03-22T18:11:07.676Z,38
2023-03-22T18:16:23.860Z,40
2023-03-22T18:21:40.246Z,39
2023-03-22T18:27:10.398Z,36
2023-03-22T18:32:18.587Z,40
2023-03-22T18:37:29.412Z,41
2023-03-22T18:42:48.593Z,43
2023-03-22T18:48:03.434Z,46
2023-03-22T18:53:20.273Z,43
2023-03-22T18:58:36.655Z,44
2023-03-22T19:03:53.157Z,53
2023-03-22T19:09:09.332Z,50
2023-03-22T19:19:42.613Z,52
2023-03-22T19:24:59.654Z,52
2023-03-22T19:30:16.461Z,48
2023-03-22T19:35:33.089Z,51
2023-03-22T19:41:33.645Z,48
2023-03-22T19:46:06.095Z,44
2023-03-22T19:51:22.501Z,43
2023-03-22T19:56:38.694Z,42
2023-03-22T20:01:55.134Z,42
2023-03-22T20:07:11.785Z,39
2023-03-22T20:12:28.253Z,40
2023-03-22T20:17:44.666Z,39
2023-03-22T20:23:01.666Z,42
2023-03-22T20:28:18.682Z,44
2023-03-22T20:33:35.113Z,45
2023-03-22T20:38:51.517Z,44
2023-03-22T20:44:07.724Z,42
2023-03-22T20:49:24.002Z,44
2023-03-22T20:54:40.213Z,45
2023-03-22T20:59:56.397Z,46
2023-03-22T21:05:12.816Z,45
2023-03-22T21:10:29.270Z,42
2023-03-22T21:15:45.686Z,40
2023-03-22T21:21:02.069Z,40
2023-03-22T21:26:18.742Z,41
2023-03-22T21:31:35.125Z,37
2023-03-22T21:36:51.900Z,38
2023-03-22T21:42:08.556Z,37
2023-03-22T21:47:24.957Z,38
2023-03-22T21:52:41.363Z,39
2023-03-22T21:57:57.805Z,35
2023-03-22T22:03:14.751Z,36
2023-03-22T22:08:31.136Z,38
2023-03-22T22:13:47.587Z,35
2023-03-22T22:19:03.979Z,37
2023-03-22T22:24:20.369Z,36
2023-03-22T22:29:36.532Z,33
2023-03-22T22:34:52.928Z,38
2023-03-22T22:40:09.341Z,36
2023-03-22T22:45:25.783Z,31
2023-03-22T22:50:42.152Z,29
2023-03-22T22:55:58.763Z,29
2023-03-22T23:01:15.172Z,36
2023-03-22T23:06:31.548Z,33
2023-03-22T23:11:47.968Z,33
2023-03-22T23:17:04.397Z,31
2023-03-22T23:22:20.784Z,29
2023-03-22T23:27:37.195Z,27
2023-03-22T23:32:53.615Z,32
2023-03-22T23:38:09.992Z,31
2023-03-22T23:43:27.000Z,32
2023-03-22T23:48:43.368Z,35
2023-03-22T23:53:59.803Z,32
2023-03-22T23:59:16.218Z,31
